createdAt,value
2022-09-06T00:01:27.373Z,13.90
2022-09-06T00:03:58.244Z,13.90
2022-09-06T00:06:27.677Z,13.80
2022-09-06T00:08:56.956Z,13.70
2022-09-06T00:11:25.905Z,13.70
2022-09-06T00:13:54.744Z,13.60
2022-09-06T00:16:30.134Z,13.60
2022-09-06T00:19:00.976Z,13.40
2022-09-06T00:21:32.289Z,13.30
2022-09-06T00:24:01.320Z,13.20
2022-09-06T00:26:30.396Z,13.20
2022-09-06T00:28:59.663Z,13.10
2022-09-06T00:31:29.343Z,13.00
2022-09-06T00:34:00.220Z,12.90
2022-09-06T00:36:29.548Z,12.90
2022-09-06T00:38:58.913Z,12.80
2022-09-06T00:41:28.248Z,12.80
2022-09-06T00:43:57.327Z,12.70
2022-09-06T00:46:28.766Z,12.60
2022-09-06T00:49:05.036Z,12.60
2022-09-06T00:51:36.008Z,12.50
2022-09-06T00:54:06.631Z,12.50
2022-09-06T00:56:39.997Z,12.50
2022-09-06T00:59:09.908Z,12.40
2022-09-06T01:01:39.369Z,12.30
2022-09-06T01:04:10.432Z,12.20
2022-09-06T01:06:49.935Z,12.20
2022-09-06T01:09:30.315Z,12.10
2022-09-06T01:12:13.968Z,12.10
2022-09-06T01:14:53.687Z,12.10
2022-09-06T01:17:36.451Z,12.20
2022-09-06T01:20:47.071Z,12.20
2022-09-06T01:23:52.939Z,12.20
2022-09-06T01:27:01.427Z,12.10
2022-09-06T01:29:38.191Z,12.20
2022-09-06T01:32:14.287Z,12.30
2022-09-06T01:34:50.299Z,12.30
2022-09-06T01:37:22.071Z,12.30
2022-09-06T01:39:51.433Z,12.30
2022-09-06T01:42:23.843Z,12.20
2022-09-06T01:45:00.502Z,12.20
2022-09-06T01:47:41.106Z,12.20
2022-09-06T01:50:41.282Z,12.10
2022-09-06T01:53:24.156Z,12.10
2022-09-06T01:56:01.115Z,12.10
2022-09-06T01:58:48.830Z,12.00
2022-09-06T02:01:26.256Z,12.00
2022-09-06T02:04:02.366Z,12.00
2022-09-06T02:06:34.914Z,11.90
2022-09-06T02:09:08.470Z,11.80
2022-09-06T02:11:44.463Z,11.70
2022-09-06T02:14:17.608Z,11.60
2022-09-06T02:16:52.827Z,11.60
2022-09-06T02:19:26.802Z,11.50
2022-09-06T02:21:58.573Z,11.40
2022-09-06T02:24:32.929Z,11.30
2022-09-06T02:27:02.231Z,11.30
2022-09-06T02:29:31.413Z,11.20
2022-09-06T02:32:06.084Z,11.10
2022-09-06T02:34:38.589Z,11.00
2022-09-06T02:37:08.537Z,10.90
2022-09-06T02:39:37.511Z,10.80
2022-09-06T02:42:08.227Z,10.70
2022-09-06T02:44:37.486Z,10.70
2022-09-06T02:47:08.729Z,10.60
2022-09-06T02:49:37.698Z,10.50
2022-09-06T02:52:06.837Z,10.40
2022-09-06T02:54:35.621Z,10.40
2022-09-06T02:57:04.865Z,10.40
2022-09-06T02:59:34.363Z,10.30
2022-09-06T03:02:03.478Z,10.30
2022-09-06T03:04:34.517Z,10.20
2022-09-06T03:07:03.897Z,10.20
2022-09-06T03:09:33.014Z,10.10
2022-09-06T03:12:02.003Z,10.10
2022-09-06T03:14:30.696Z,10.00
2022-09-06T03:16:59.804Z,9.90
2022-09-06T03:19:28.873Z,9.90
2022-09-06T03:21:59.700Z,9.90
2022-09-06T03:24:28.930Z,9.70
2022-09-06T03:26:57.965Z,9.80
2022-09-06T03:29:26.973Z,9.80
2022-09-06T03:31:55.899Z,9.80
2022-09-06T03:34:25.248Z,9.80
2022-09-06T03:36:54.325Z,9.80
2022-09-06T03:39:25.501Z,9.80
2022-09-06T03:41:54.466Z,9.70
2022-09-06T03:44:23.502Z,9.70
2022-09-06T03:46:53.056Z,9.70
2022-09-06T03:49:22.824Z,9.70
2022-09-06T03:51:51.961Z,9.70
2022-09-06T03:54:20.917Z,9.70
2022-09-06T03:56:51.748Z,9.70
2022-09-06T03:59:20.556Z,9.90
2022-09-06T04:01:50.048Z,10.00
2022-09-06T04:04:19.229Z,10.00
2022-09-06T04:06:49.004Z,10.10
2022-09-06T04:09:18.081Z,10.30
2022-09-06T04:11:47.388Z,10.20
2022-09-06T04:14:18.581Z,10.30
2022-09-06T04:16:47.972Z,10.30
2022-09-06T04:19:17.112Z,10.40
2022-09-06T04:21:45.952Z,10.50
2022-09-06T04:24:15.056Z,10.50
2022-09-06T04:26:44.104Z,10.60
2022-09-06T04:29:13.487Z,10.60
2022-09-06T04:31:44.587Z,10.70
2022-09-06T04:34:13.388Z,10.70
2022-09-06T04:36:46.493Z,10.80
2022-09-06T04:39:17.526Z,10.80
2022-09-06T04:41:46.853Z,10.90
2022-09-06T04:44:15.939Z,11.00
2022-09-06T04:46:46.508Z,11.10
2022-09-06T04:49:18.217Z,11.10
2022-09-06T04:51:47.207Z,11.10
2022-09-06T04:54:16.483Z,11.10
2022-09-06T04:56:45.855Z,11.20
2022-09-06T04:59:14.851Z,11.20
2022-09-06T05:01:43.911Z,11.20
2022-09-06T05:04:14.391Z,11.30
2022-09-06T05:06:43.552Z,11.30
2022-09-06T05:09:12.803Z,11.30
2022-09-06T05:11:41.706Z,11.40
2022-09-06T05:14:10.459Z,11.50
2022-09-06T05:16:39.843Z,11.50
2022-09-06T05:19:08.829Z,11.60
2022-09-06T05:21:39.851Z,11.60
2022-09-06T05:24:08.980Z,11.70
2022-09-06T05:26:38.116Z,11.80
2022-09-06T05:29:06.960Z,11.80
2022-09-06T05:31:37.470Z,11.80
2022-09-06T05:34:06.963Z,11.90
2022-09-06T05:36:36.011Z,12.00
2022-09-06T05:39:09.912Z,12.00
2022-09-06T05:41:40.447Z,12.10
2022-09-06T05:44:09.430Z,12.20
2022-09-06T05:46:45.418Z,12.30
2022-09-06T05:49:15.298Z,12.40
2022-09-06T05:51:44.386Z,12.40
2022-09-06T05:54:15.513Z,12.60
2022-09-06T05:56:44.739Z,12.70
2022-09-06T05:59:13.816Z,12.80
2022-09-06T06:01:50.505Z,12.90
2022-09-06T06:04:20.466Z,13.00
2022-09-06T06:06:50.449Z,13.10
2022-09-06T06:09:21.105Z,13.00
2022-09-06T06:11:50.398Z,13.00
2022-09-06T06:14:19.397Z,13.10
2022-09-06T06:16:48.583Z,13.10
2022-09-06T06:19:17.461Z,13.10
2022-09-06T06:21:46.721Z,13.10
2022-09-06T06:24:15.653Z,13.30
2022-09-06T06:26:46.933Z,13.60
2022-09-06T06:29:16.205Z,13.90
2022-09-06T06:31:45.073Z,14.40
2022-09-06T06:34:14.452Z,14.40
2022-09-06T06:36:44.748Z,14.60
2022-09-06T06:39:13.910Z,14.90
2022-09-06T06:41:42.674Z,15.00
2022-09-06T06:44:36.152Z,14.80
2022-09-06T06:47:05.388Z,14.90
2022-09-06T06:49:34.300Z,15.10
2022-09-06T06:52:03.512Z,15.30
2022-09-06T06:54:32.363Z,15.30
2022-09-06T06:57:01.500Z,15.20
2022-09-06T06:59:30.517Z,15.20
2022-09-06T07:02:01.575Z,15.10
2022-09-06T07:04:30.751Z,15.20
2022-09-06T07:12:38.615Z,15.10
2022-09-06T07:15:08.569Z,15.20
2022-09-06T07:17:39.183Z,15.30
2022-09-06T07:22:44.190Z,15.40
2022-09-06T07:25:17.610Z,15.40
2022-09-06T07:27:48.958Z,15.40
2022-09-06T07:30:20.194Z,15.40
2022-09-06T07:32:50.844Z,15.50
2022-09-06T07:35:20.896Z,15.30
2022-09-06T07:37:57.579Z,15.30
2022-09-06T07:40:27.176Z,15.20
2022-09-06T07:42:59.184Z,15.20
2022-09-06T07:45:28.863Z,15.10
2022-09-06T07:48:00.387Z,14.90
2022-09-06T07:50:48.452Z,14.90
2022-09-06T07:53:27.759Z,15.00
2022-09-06T07:56:01.203Z,15.00
2022-09-06T07:58:30.961Z,15.00
2022-09-06T08:01:19.729Z,15.00
2022-09-06T08:03:50.883Z,15.00
2022-09-06T08:06:19.944Z,15.20
2022-09-06T08:11:27.328Z,15.30
2022-09-06T08:13:57.938Z,15.40
2022-09-06T08:16:29.485Z,15.40
2022-09-06T08:19:02.934Z,15.50
2022-09-06T08:21:33.574Z,15.60
2022-09-06T08:24:04.764Z,15.80
2022-09-06T08:26:36.765Z,15.90
2022-09-06T08:29:08.041Z,16.00
2022-09-06T08:31:38.548Z,16.10
2022-09-06T08:34:09.386Z,16.30
2022-09-06T08:36:38.943Z,16.50
2022-09-06T08:39:10.555Z,16.90
2022-09-06T08:41:48.314Z,17.10
2022-09-06T08:47:12.641Z,17.10
2022-09-06T08:49:46.421Z,17.00
2022-09-06T08:53:00.135Z,17.20
2022-09-06T08:55:39.347Z,17.30
2022-09-06T08:58:23.518Z,17.40
2022-09-06T09:00:58.972Z,17.60
2022-09-06T09:03:34.256Z,17.90
2022-09-06T09:06:06.344Z,18.00
2022-09-06T09:08:45.567Z,18.00
2022-09-06T09:11:19.425Z,17.90
2022-09-06T09:13:56.556Z,17.70
2022-09-06T09:16:26.214Z,17.70
2022-09-06T09:18:57.882Z,18.00
2022-09-06T09:21:31.061Z,18.90
2022-09-06T09:24:05.058Z,20.70
2022-09-06T09:26:40.393Z,22.50
2022-09-06T09:29:12.737Z,23.90
2022-09-06T09:31:44.671Z,24.70
2022-09-06T09:34:15.018Z,24.60
2022-09-06T09:39:37.923Z,23.60
2022-09-06T09:42:07.878Z,23.80
2022-09-06T09:44:38.790Z,23.90
2022-09-06T09:47:27.104Z,24.00
2022-09-06T09:49:56.684Z,23.30
2022-09-06T09:52:29.591Z,23.20
2022-09-06T09:55:02.301Z,22.90
2022-09-06T09:57:33.825Z,22.60
2022-09-06T10:00:04.536Z,22.70
2022-09-06T10:02:35.978Z,21.90
2022-09-06T10:05:10.449Z,21.70
2022-09-06T10:07:49.510Z,21.00
2022-09-06T10:10:25.964Z,20.60
2022-09-06T10:13:09.705Z,21.50
2022-09-06T10:15:40.856Z,22.00
2022-09-06T10:18:19.724Z,23.60
2022-09-06T10:20:55.844Z,24.80
2022-09-06T10:26:32.690Z,25.30
2022-09-06T10:29:07.400Z,26.30
2022-09-06T10:31:51.294Z,25.70
2022-09-06T10:34:53.011Z,25.10
2022-09-06T10:37:38.364Z,24.30
2022-09-06T10:40:11.486Z,24.60
2022-09-06T10:42:45.553Z,24.30
2022-09-06T10:45:25.991Z,23.90
2022-09-06T10:48:01.924Z,23.30
2022-09-06T10:50:40.011Z,23.40
2022-09-06T10:53:14.243Z,23.00
2022-09-06T10:55:50.081Z,23.60
2022-09-06T10:58:26.869Z,23.50
2022-09-06T11:00:57.672Z,23.40
2022-09-06T11:06:26.824Z,24.50
2022-09-06T11:09:04.347Z,25.90
2022-09-06T11:11:42.058Z,26.20
2022-09-06T11:14:15.050Z,26.30
2022-09-06T11:16:51.608Z,27.20
2022-09-06T11:19:25.642Z,27.00
2022-09-06T11:22:14.290Z,27.90
2022-09-06T11:25:02.358Z,29.00
2022-09-06T11:27:42.766Z,27.60
2022-09-06T11:30:17.586Z,26.90
2022-09-06T11:32:50.779Z,25.50
2022-09-06T11:35:25.742Z,25.20
2022-09-06T11:38:03.897Z,25.90
2022-09-06T11:40:42.066Z,25.70
2022-09-06T11:43:21.345Z,27.00
2022-09-06T11:45:52.861Z,27.10
2022-09-06T11:49:02.330Z,27.20
2022-09-06T11:51:38.240Z,26.20
2022-09-06T11:54:32.137Z,25.20
2022-09-06T11:57:11.881Z,24.10
2022-09-06T11:59:54.622Z,24.40
2022-09-06T12:02:42.414Z,25.90
2022-09-06T12:05:17.952Z,26.50
2022-09-06T12:08:36.145Z,26.80
2022-09-06T12:11:27.039Z,26.50
2022-09-06T12:14:04.972Z,26.40
2022-09-06T12:17:11.677Z,26.40
2022-09-06T12:19:45.904Z,26.20
2022-09-06T12:22:52.852Z,26.10
2022-09-06T12:25:59.712Z,25.00
2022-09-06T12:28:47.836Z,24.20
2022-09-06T12:31:40.331Z,24.00
2022-09-06T12:34:16.750Z,23.70
2022-09-06T12:37:03.312Z,23.60
2022-09-06T12:39:32.710Z,23.70
2022-09-06T12:42:04.328Z,23.30
2022-09-06T12:44:37.287Z,23.50
2022-09-06T12:47:13.212Z,24.00
2022-09-06T12:49:42.680Z,23.80
2022-09-06T12:52:16.327Z,23.70
2022-09-06T12:54:51.548Z,24.10
2022-09-06T12:57:27.643Z,24.20
2022-09-06T12:59:58.521Z,24.60
2022-09-06T13:02:35.693Z,25.40
2022-09-06T13:05:08.370Z,25.90
2022-09-06T13:07:44.971Z,25.80
2022-09-06T13:10:16.745Z,26.70
2022-09-06T13:12:49.555Z,27.50
2022-09-06T13:15:22.095Z,27.60
2022-09-06T13:17:51.673Z,26.80
2022-09-06T13:20:28.283Z,26.00
2022-09-06T13:23:11.463Z,26.50
2022-09-06T13:25:50.423Z,27.30
2022-09-06T13:28:28.569Z,27.90
2022-09-06T13:31:10.180Z,27.30
2022-09-06T13:33:42.591Z,27.40
2022-09-06T13:36:23.870Z,27.40
2022-09-06T13:38:56.328Z,27.40
2022-09-06T13:41:41.864Z,27.20
2022-09-06T13:44:29.859Z,27.50
2022-09-06T13:47:00.984Z,27.60
2022-09-06T13:49:30.997Z,26.10
2022-09-06T13:52:07.410Z,25.20
2022-09-06T13:54:38.814Z,25.40
2022-09-06T13:57:12.719Z,25.70
2022-09-06T13:59:43.650Z,25.60
2022-09-06T14:02:21.953Z,25.20
2022-09-06T14:04:52.287Z,25.00
2022-09-06T14:07:21.607Z,24.70
2022-09-06T14:09:52.634Z,24.90
2022-09-06T14:12:21.690Z,24.60
2022-09-06T14:14:50.555Z,24.50
2022-09-06T14:17:19.899Z,23.80
2022-09-06T14:19:50.785Z,24.30
2022-09-06T14:22:20.589Z,24.50
2022-09-06T14:24:50.190Z,24.70
2022-09-06T14:27:21.584Z,24.10
2022-09-06T14:30:00.717Z,24.60
2022-09-06T14:32:34.095Z,23.90
2022-09-06T14:35:11.492Z,23.60
2022-09-06T14:37:43.441Z,23.40
2022-09-06T14:40:18.750Z,23.00
2022-09-06T14:42:56.025Z,23.00
2022-09-06T14:45:28.049Z,22.90
2022-09-06T14:48:00.558Z,23.00
2022-09-06T14:50:32.362Z,22.70
2022-09-06T14:53:11.684Z,22.80
2022-09-06T14:55:50.340Z,23.00
2022-09-06T14:58:21.918Z,22.30
2022-09-06T15:00:51.126Z,22.10
2022-09-06T15:03:20.402Z,22.00
2022-09-06T15:05:50.041Z,21.90
2022-09-06T15:08:20.112Z,22.00
2022-09-06T15:10:54.902Z,22.30
2022-09-06T15:13:27.682Z,22.30
2022-09-06T15:15:57.734Z,22.80
2022-09-06T15:18:28.507Z,23.50
2022-09-06T15:20:58.113Z,23.70
2022-09-06T15:23:29.620Z,23.80
2022-09-06T15:25:58.853Z,23.60
2022-09-06T15:28:30.115Z,23.10
2022-09-06T15:31:00.121Z,23.00
2022-09-06T15:33:32.085Z,22.40
2022-09-06T15:36:06.672Z,22.00
2022-09-06T15:38:40.763Z,22.10
2022-09-06T15:41:12.327Z,21.90
2022-09-06T15:43:49.315Z,22.00
2022-09-06T15:46:21.412Z,21.90
2022-09-06T15:48:54.203Z,21.70
2022-09-06T15:51:24.072Z,21.60
2022-09-06T15:53:53.043Z,21.50
2022-09-06T15:56:22.749Z,21.30
2022-09-06T15:58:53.995Z,21.10
2022-09-06T16:01:28.536Z,21.00
2022-09-06T16:04:03.847Z,20.80
2022-09-06T16:06:35.247Z,20.60
2022-09-06T16:09:07.706Z,20.50
2022-09-06T16:11:37.334Z,20.40
2022-09-06T16:14:09.831Z,20.20
2022-09-06T16:16:41.200Z,20.10
2022-09-06T16:19:10.806Z,20.00
2022-09-06T16:21:42.242Z,19.80
2022-09-06T16:24:14.610Z,19.60
2022-09-06T16:26:48.299Z,19.50
2022-09-06T16:29:20.939Z,19.30
2022-09-06T16:31:54.100Z,19.20
2022-09-06T16:34:24.702Z,19.00
2022-09-06T16:37:08.329Z,18.90
2022-09-06T16:39:41.583Z,18.70
2022-09-06T16:42:13.806Z,18.60
2022-09-06T16:44:48.078Z,18.40
2022-09-06T16:47:21.772Z,18.30
2022-09-06T16:49:52.330Z,18.30
2022-09-06T16:52:23.893Z,18.30
2022-09-06T16:54:53.636Z,18.30
2022-09-06T16:57:27.876Z,18.30
2022-09-06T17:00:02.013Z,18.20
2022-09-06T17:02:33.224Z,18.10
2022-09-06T17:05:12.749Z,18.10
2022-09-06T17:07:47.414Z,17.90
2022-09-06T17:10:19.560Z,17.70
2022-09-06T17:12:49.925Z,17.50
2022-09-06T17:15:25.158Z,17.50
2022-09-06T17:18:00.429Z,17.40
2022-09-06T17:20:34.710Z,17.30
2022-09-06T17:23:04.786Z,17.10
2022-09-06T17:25:36.249Z,17.00
2022-09-06T17:28:06.360Z,16.90
2022-09-06T17:30:43.851Z,16.80
2022-09-06T17:33:17.202Z,16.70
2022-09-06T17:35:48.093Z,16.60
2022-09-06T17:38:19.901Z,16.60
2022-09-06T17:41:05.009Z,16.50
2022-09-06T17:43:40.037Z,16.30
2022-09-06T17:46:16.409Z,16.30
2022-09-06T17:48:46.186Z,16.20
2022-09-06T17:51:16.313Z,16.10
2022-09-06T17:53:48.045Z,16.00
2022-09-06T17:56:19.679Z,16.00
2022-09-06T17:58:55.957Z,16.00
2022-09-06T18:01:32.165Z,16.00
2022-09-06T18:04:02.667Z,15.90
2022-09-06T18:06:36.672Z,15.90
2022-09-06T18:09:15.458Z,15.90
2022-09-06T18:11:49.094Z,15.80
2022-09-06T18:14:22.544Z,15.70
2022-09-06T18:16:56.352Z,15.70
2022-09-06T18:19:26.888Z,15.60
2022-09-06T18:21:58.631Z,15.50
2022-09-06T18:24:28.896Z,15.30
2022-09-06T18:26:58.398Z,15.40
2022-09-06T18:29:28.665Z,15.30
2022-09-06T18:32:01.192Z,15.30
2022-09-06T18:34:32.337Z,15.10
2022-09-06T18:37:02.835Z,15.00
2022-09-06T18:39:32.475Z,15.00
2022-09-06T18:42:04.095Z,15.00
2022-09-06T18:44:39.000Z,15.00
2022-09-06T18:47:13.647Z,15.20
2022-09-06T18:49:44.558Z,15.30
2022-09-06T18:52:15.778Z,15.40
2022-09-06T18:54:46.157Z,15.50
2022-09-06T18:57:17.672Z,15.50
2022-09-06T18:59:49.406Z,15.40
2022-09-06T19:02:24.161Z,15.50
2022-09-06T19:04:59.978Z,15.50
2022-09-06T19:07:30.643Z,15.40
2022-09-06T19:10:02.549Z,15.40
2022-09-06T19:12:35.283Z,15.40
2022-09-06T19:15:13.203Z,15.30
2022-09-06T19:17:46.203Z,15.20
2022-09-06T19:20:17.000Z,15.20
2022-09-06T19:22:51.798Z,15.20
2022-09-06T19:25:26.052Z,15.20
2022-09-06T19:27:58.416Z,15.30
2022-09-06T19:30:31.723Z,15.30
2022-09-06T19:33:07.497Z,15.30
2022-09-06T19:35:50.997Z,15.40
2022-09-06T19:38:42.072Z,15.40
2022-09-06T19:41:20.926Z,15.40
2022-09-06T19:43:53.533Z,15.40
2022-09-06T19:46:24.719Z,15.50
2022-09-06T19:49:00.457Z,15.50
2022-09-06T19:51:31.470Z,15.40
2022-09-06T19:54:01.867Z,15.40
2022-09-06T19:56:37.442Z,15.30
2022-09-06T19:59:11.670Z,15.30
2022-09-06T20:01:43.623Z,15.20
2022-09-06T20:04:16.265Z,15.10
2022-09-06T20:06:47.216Z,15.00
2022-09-06T20:09:17.708Z,14.90
2022-09-06T20:11:47.313Z,14.90
2022-09-06T20:14:18.983Z,14.80
2022-09-06T20:16:49.371Z,14.70
2022-09-06T20:19:21.409Z,14.60
2022-09-06T20:21:52.144Z,14.40
2022-09-06T20:24:23.261Z,14.30
2022-09-06T20:26:55.869Z,14.30
2022-09-06T20:29:26.977Z,14.20
2022-09-06T20:31:57.115Z,14.10
2022-09-06T20:34:29.807Z,14.10
2022-09-06T20:37:01.069Z,14.00
2022-09-06T20:39:30.815Z,14.00
2022-09-06T20:42:01.082Z,13.80
2022-09-06T20:44:31.652Z,13.70
2022-09-06T20:47:01.768Z,13.60
2022-09-06T20:49:32.974Z,13.50
2022-09-06T20:52:02.580Z,13.40
2022-09-06T20:54:33.777Z,13.40
2022-09-06T20:57:03.357Z,13.40
2022-09-06T20:59:32.908Z,13.40
2022-09-06T21:02:03.019Z,13.30
2022-09-06T21:04:34.679Z,13.10
2022-09-06T21:07:04.229Z,13.00
2022-09-06T21:09:34.081Z,12.80
2022-09-06T21:12:06.125Z,12.80
2022-09-06T21:14:38.567Z,12.70
2022-09-06T21:17:13.888Z,12.80
2022-09-06T21:19:46.828Z,12.90
2022-09-06T21:22:19.582Z,12.80
2022-09-06T21:24:50.351Z,12.70
2022-09-06T21:27:21.068Z,12.60
2022-09-06T21:29:52.263Z,12.60
2022-09-06T21:32:25.172Z,12.60
2022-09-06T21:34:59.876Z,12.60
2022-09-06T21:37:30.296Z,12.60
2022-09-06T21:40:00.993Z,12.60
2022-09-06T21:42:33.687Z,12.60
2022-09-06T21:45:03.824Z,12.60
2022-09-06T21:47:37.873Z,12.50
2022-09-06T21:50:10.884Z,12.60
2022-09-06T21:52:40.476Z,12.50
2022-09-06T21:55:14.962Z,12.40
2022-09-06T21:57:46.159Z,12.30
2022-09-06T22:00:20.805Z,12.30
2022-09-06T22:02:55.009Z,12.30
2022-09-06T22:05:26.828Z,12.30
2022-09-06T22:07:58.361Z,12.30
2022-09-06T22:10:28.707Z,12.30
2022-09-06T22:13:01.903Z,12.30
2022-09-06T22:15:32.446Z,12.30
2022-09-06T22:18:07.676Z,12.30
2022-09-06T22:20:39.807Z,12.40
2022-09-06T22:23:11.136Z,12.40
2022-09-06T22:25:43.050Z,12.40
2022-09-06T22:28:13.296Z,12.40
2022-09-06T22:30:47.368Z,12.40
2022-09-06T22:33:17.961Z,12.40
2022-09-06T22:35:49.727Z,12.30
2022-09-06T22:38:19.866Z,12.30
2022-09-06T22:40:50.011Z,12.40
2022-09-06T22:43:20.307Z,12.30
2022-09-06T22:45:52.106Z,12.30
2022-09-06T22:48:23.323Z,12.20
2022-09-06T22:50:56.345Z,12.10
2022-09-06T22:53:26.692Z,12.10
2022-09-06T22:55:56.611Z,12.10
2022-09-06T22:58:31.574Z,12.20
2022-09-06T23:01:10.045Z,12.30
2022-09-06T23:03:41.381Z,12.30
2022-09-06T23:06:14.591Z,12.30
2022-09-06T23:08:45.587Z,12.40
2022-09-06T23:11:20.856Z,12.40
2022-09-06T23:13:52.193Z,12.40
2022-09-06T23:16:22.361Z,12.40
2022-09-06T23:18:55.768Z,12.40
2022-09-06T23:21:28.558Z,12.40
2022-09-06T23:24:03.028Z,12.30
2022-09-06T23:26:36.245Z,12.20
2022-09-06T23:29:06.621Z,12.00
2022-09-06T23:31:37.488Z,12.00
2022-09-06T23:34:07.773Z,11.90
2022-09-06T23:36:39.222Z,11.90
2022-09-06T23:39:10.592Z,11.90
2022-09-06T23:41:40.764Z,11.80
2022-09-06T23:44:11.068Z,11.70
2022-09-06T23:46:41.227Z,11.70
2022-09-06T23:49:11.021Z,11.60
2022-09-06T23:51:43.033Z,11.60
2022-09-06T23:54:12.949Z,11.50
2022-09-06T23:56:43.100Z,11.40
2022-09-06T23:59:13.953Z,11.30
